createdAt,value
2023-01-07T00:00:01.905Z,98676.81
2023-01-07T00:02:15.095Z,98674.28
2023-01-07T00:04:21.463Z,98671.69
2023-01-07T00:06:26.580Z,98671.69
2023-01-07T00:08:30.690Z,98680.34
2023-01-07T00:10:35.123Z,98675.19
2023-01-07T00:12:38.133Z,98671.84
2023-01-07T00:14:41.165Z,98666.00
2023-01-07T00:16:44.541Z,98660.88
2023-01-07T00:18:48.075Z,98664.41
2023-01-07T00:20:52.414Z,98654.78
2023-01-07T00:22:55.532Z,98660.09
2023-01-07T00:24:58.563Z,98662.53
2023-01-07T00:27:01.680Z,98655.56
2023-01-07T00:29:06.089Z,98650.44
2023-01-07T00:31:11.449Z,98647.06
2023-01-07T00:33:15.633Z,98648.66
2023-01-07T00:35:23.260Z,98636.34
2023-01-07T00:37:45.333Z,98633.84
2023-01-07T00:39:48.300Z,98634.59
2023-01-07T00:42:08.708Z,98631.31
2023-01-07T00:44:12.283Z,98628.81
2023-01-07T00:46:16.119Z,98639.31
2023-01-07T00:48:19.224Z,98634.09
2023-01-07T00:50:22.410Z,98634.19
2023-01-07T00:52:27.066Z,98627.31
2023-01-07T00:54:30.197Z,98634.28
2023-01-07T00:56:33.590Z,98617.81
2023-01-07T00:58:36.696Z,98624.91
2023-01-07T01:00:40.167Z,98614.47
2023-01-07T01:02:43.206Z,98610.94
2023-01-07T01:04:46.254Z,98617.91
2023-01-07T01:06:49.299Z,98612.59
2023-01-07T01:08:53.694Z,98617.72
2023-01-07T01:10:56.729Z,98607.38
2023-01-07T01:13:00.203Z,98613.44
2023-01-07T01:15:03.693Z,98604.78
2023-01-07T01:17:06.767Z,98610.09
2023-01-07T01:19:09.767Z,98599.75
2023-01-07T01:21:14.928Z,98600.59
2023-01-07T01:23:18.224Z,98602.44
2023-01-07T01:25:22.621Z,98599.00
2023-01-07T01:27:25.785Z,98605.16
2023-01-07T01:29:29.020Z,98607.75
2023-01-07T01:31:32.400Z,98605.22
2023-01-07T01:33:35.860Z,98608.09
2023-01-07T01:35:41.470Z,98600.28
2023-01-07T01:37:45.137Z,98616.63
2023-01-07T01:39:49.121Z,98619.03
2023-01-07T01:41:53.516Z,98606.00
2023-01-07T01:43:56.715Z,98616.25
2023-01-07T01:46:02.046Z,98614.75
2023-01-07T01:48:07.770Z,98603.66
2023-01-07T01:50:16.546Z,98608.28
2023-01-07T01:52:22.491Z,98605.22
2023-01-07T01:54:26.911Z,98604.47
2023-01-07T01:56:35.319Z,98608.75
2023-01-07T01:58:42.581Z,98606.03
2023-01-07T02:00:46.462Z,98610.34
2023-01-07T02:03:27.134Z,98602.44
2023-01-07T02:05:33.954Z,98604.13
2023-01-07T02:07:37.064Z,98594.53
2023-01-07T02:09:42.457Z,98595.34
2023-01-07T02:11:57.773Z,98591.00
2023-01-07T02:14:12.890Z,98585.78
2023-01-07T02:16:21.366Z,98590.91
2023-01-07T02:18:43.637Z,98587.25
2023-01-07T02:21:09.445Z,98580.38
2023-01-07T02:23:36.889Z,98577.00
2023-01-07T02:26:17.514Z,98574.59
2023-01-07T02:28:52.671Z,98572.06
2023-01-07T02:31:22.289Z,98570.31
2023-01-07T02:33:35.351Z,98571.16
2023-01-07T02:35:49.484Z,98568.44
2023-01-07T02:37:57.412Z,98571.06
2023-01-07T02:40:05.655Z,98565.84
2023-01-07T02:42:14.807Z,98561.38
2023-01-07T02:44:23.231Z,98563.22
2023-01-07T02:46:30.883Z,98559.81
2023-01-07T02:48:35.816Z,98553.81
2023-01-07T02:50:38.956Z,98549.56
2023-01-07T02:52:42.021Z,98553.00
2023-01-07T02:54:45.455Z,98551.31
2023-01-07T02:57:02.274Z,98539.97
2023-01-07T02:59:18.479Z,98537.34
2023-01-07T03:01:36.196Z,98540.88
2023-01-07T03:03:54.750Z,98538.25
2023-01-07T03:06:07.019Z,98534.75
2023-01-07T03:08:44.168Z,98537.44
2023-01-07T03:10:51.934Z,98535.66
2023-01-07T03:13:01.007Z,98533.06
2023-01-07T03:15:09.383Z,98528.78
2023-01-07T03:17:18.682Z,98520.88
2023-01-07T03:19:25.873Z,98526.19
2023-01-07T03:21:29.546Z,98514.91
2023-01-07T03:23:33.471Z,98518.38
2023-01-07T03:25:40.565Z,98519.19
2023-01-07T03:27:47.592Z,98516.69
2023-01-07T03:29:51.245Z,98508.84
2023-01-07T03:31:58.224Z,98507.94
2023-01-07T03:34:05.338Z,98505.34
2023-01-07T03:36:12.125Z,98502.72
2023-01-07T03:38:16.557Z,98494.91
2023-01-07T03:40:20.168Z,98499.25
2023-01-07T03:42:42.319Z,98494.91
2023-01-07T03:44:50.118Z,98502.72
2023-01-07T03:46:54.925Z,98497.50
2023-01-07T03:48:57.937Z,98494.03
2023-01-07T03:51:01.032Z,98499.34
2023-01-07T03:53:05.471Z,98487.09
2023-01-07T03:55:11.745Z,98484.56
2023-01-07T03:57:14.781Z,98489.78
2023-01-07T03:59:17.768Z,98482.06
2023-01-07T04:01:20.999Z,98476.16
2023-01-07T04:03:24.396Z,98481.38
2023-01-07T04:05:27.411Z,98476.25
2023-01-07T04:07:30.594Z,98477.94
2023-01-07T04:09:35.122Z,98471.03
2023-01-07T04:11:38.160Z,98468.53
2023-01-07T04:13:41.155Z,98475.53
2023-01-07T04:15:44.673Z,98474.78
2023-01-07T04:17:48.023Z,98469.59
2023-01-07T04:19:51.874Z,98468.63
2023-01-07T04:21:55.059Z,98463.41
2023-01-07T04:23:58.183Z,98452.91
2023-01-07T04:26:03.625Z,98460.72
2023-01-07T04:28:06.868Z,98461.66
2023-01-07T04:30:10.963Z,98459.88
2023-01-07T04:32:14.734Z,98456.47
2023-01-07T04:34:18.106Z,98457.38
2023-01-07T04:36:21.227Z,98455.50
2023-01-07T04:38:24.716Z,98454.59
2023-01-07T04:40:30.333Z,98449.38
2023-01-07T04:42:35.706Z,98446.66
2023-01-07T04:44:39.372Z,98451.69
2023-01-07T04:46:42.469Z,98445.56
2023-01-07T04:48:45.710Z,98442.19
2023-01-07T04:50:48.870Z,98444.72
2023-01-07T04:52:52.729Z,98429.94
2023-01-07T04:54:55.789Z,98439.41
2023-01-07T04:56:58.874Z,98433.25
2023-01-07T04:59:03.746Z,98436.59
2023-01-07T05:01:07.223Z,98440.91
2023-01-07T05:03:11.413Z,98435.69
2023-01-07T05:05:14.585Z,98423.47
2023-01-07T05:07:17.595Z,98431.19
2023-01-07T05:09:21.396Z,98419.13
2023-01-07T05:11:27.500Z,98426.06
2023-01-07T05:13:35.316Z,98424.44
2023-01-07T05:15:41.515Z,98422.66
2023-01-07T05:17:44.954Z,98418.34
2023-01-07T05:19:47.990Z,98411.50
2023-01-07T05:21:52.405Z,98415.75
2023-01-07T05:23:55.666Z,98414.00
2023-01-07T05:25:59.127Z,98411.50
2023-01-07T05:28:02.617Z,98407.00
2023-01-07T05:30:08.812Z,98404.41
2023-01-07T05:32:13.468Z,98399.28
2023-01-07T05:34:17.824Z,98400.09
2023-01-07T05:36:21.808Z,98401.78
2023-01-07T05:38:25.268Z,98396.47
2023-01-07T05:40:28.348Z,98393.25
2023-01-07T05:42:32.046Z,98392.19
2023-01-07T05:44:35.932Z,98390.53
2023-01-07T05:46:38.950Z,98397.31
2023-01-07T05:48:43.413Z,98389.69
2023-01-07T05:50:46.469Z,98381.97
2023-01-07T05:52:49.454Z,98381.31
2023-01-07T05:54:52.430Z,98378.63
2023-01-07T05:56:55.374Z,98382.81
2023-01-07T05:58:58.382Z,98380.22
2023-01-07T06:01:01.555Z,98375.00
2023-01-07T06:03:05.222Z,98370.69
2023-01-07T06:05:10.602Z,98374.22
2023-01-07T06:07:13.774Z,98376.75
2023-01-07T06:09:16.803Z,98371.63
2023-01-07T06:11:19.895Z,98369.97
2023-01-07T06:13:23.131Z,98365.69
2023-01-07T06:15:26.118Z,98360.66
2023-01-07T06:17:29.590Z,98366.59
2023-01-07T06:19:32.642Z,98369.22
2023-01-07T06:21:37.134Z,98365.88
2023-01-07T06:23:40.480Z,98367.56
2023-01-07T06:25:43.586Z,98370.91
2023-01-07T06:27:46.708Z,98362.25
2023-01-07T06:29:49.843Z,98353.56
2023-01-07T06:31:52.875Z,98358.78
2023-01-07T06:33:55.901Z,98358.78
2023-01-07T06:35:58.930Z,98357.13
2023-01-07T06:38:03.294Z,98350.03
2023-01-07T06:40:07.917Z,98352.84
2023-01-07T06:42:10.897Z,98357.13
2023-01-07T06:44:14.008Z,98355.44
2023-01-07T06:46:17.087Z,98344.09
2023-01-07T06:48:20.166Z,98350.97
2023-01-07T06:50:23.146Z,98344.09
2023-01-07T06:52:28.203Z,98347.63
2023-01-07T06:54:32.737Z,98338.13
2023-01-07T06:56:35.722Z,98345.03
2023-01-07T06:58:38.830Z,98339.81
2023-01-07T07:00:41.846Z,98331.91
2023-01-07T07:02:44.849Z,98329.19
2023-01-07T07:04:47.848Z,98326.28
2023-01-07T07:06:50.847Z,98325.28
2023-01-07T07:08:53.849Z,98332.91
2023-01-07T07:10:58.270Z,98328.41
2023-01-07T07:13:01.296Z,98326.53
2023-01-07T07:15:05.255Z,98325.50
2023-01-07T07:17:08.463Z,98324.50
2023-01-07T07:19:13.291Z,98326.91
2023-01-07T07:21:16.354Z,98323.44
2023-01-07T07:23:19.424Z,98318.88
2023-01-07T07:25:22.495Z,98320.53
2023-01-07T07:27:27.021Z,98313.69
2023-01-07T07:29:29.989Z,98309.28
2023-01-07T07:31:33.133Z,98311.59
2023-01-07T07:33:36.353Z,98313.25
2023-01-07T07:35:39.400Z,98310.44
2023-01-07T07:37:42.588Z,98304.31
2023-01-07T07:39:45.716Z,98314.53
2023-01-07T07:41:51.640Z,98306.50
2023-01-07T07:43:56.008Z,98308.09
2023-01-07T07:45:59.202Z,98302.69
2023-01-07T07:48:02.207Z,98312.16
2023-01-07T07:50:05.892Z,98303.50
2023-01-07T07:52:08.975Z,98303.50
2023-01-07T07:54:12.076Z,98304.44
2023-01-07T07:56:15.126Z,98291.38
2023-01-07T07:58:18.151Z,98300.16
2023-01-07T08:00:22.978Z,98293.06
2023-01-07T08:02:26.155Z,98296.41
2023-01-07T08:04:33.960Z,98293.59
2023-01-07T08:06:37.222Z,98296.84
2023-01-07T08:08:40.314Z,98294.03
2023-01-07T08:10:43.550Z,98289.66
2023-01-07T08:12:46.783Z,98284.34
2023-01-07T08:14:49.847Z,98294.78
2023-01-07T08:16:54.327Z,98292.16
2023-01-07T08:18:57.488Z,98290.38
2023-01-07T08:21:00.565Z,98288.72
2023-01-07T08:23:04.957Z,98286.63
2023-01-07T08:25:08.774Z,98284.66
2023-01-07T08:27:11.806Z,98277.53
2023-01-07T08:29:14.885Z,98279.94
2023-01-07T08:31:18.202Z,98280.59
2023-01-07T08:33:22.727Z,98277.78
2023-01-07T08:35:25.919Z,98274.97
2023-01-07T08:37:30.500Z,98274.88
2023-01-07T08:39:33.530Z,98274.78
2023-01-07T08:41:36.566Z,98271.09
2023-01-07T08:43:39.730Z,98270.16
2023-01-07T08:45:44.059Z,98271.75
2023-01-07T08:47:47.728Z,98269.97
2023-01-07T08:49:52.167Z,98267.13
2023-01-07T08:51:55.207Z,98270.56
2023-01-07T08:53:58.262Z,98263.81
2023-01-07T08:56:01.345Z,98269.25
2023-01-07T08:58:04.531Z,98260.25
2023-01-07T09:00:09.055Z,98262.03
2023-01-07T09:02:14.882Z,98267.34
2023-01-07T09:04:17.977Z,98268.06
2023-01-07T09:06:22.836Z,98269.09
2023-01-07T09:08:26.021Z,98262.13
2023-01-07T09:10:29.045Z,98258.47
2023-01-07T09:12:32.154Z,98267.88
2023-01-07T09:14:35.325Z,98266.94
2023-01-07T09:16:38.349Z,98264.13
2023-01-07T09:18:41.483Z,98266.53
2023-01-07T09:20:44.879Z,98255.88
2023-01-07T09:22:49.372Z,98253.25
2023-01-07T09:24:52.407Z,98255.56
2023-01-07T09:26:55.489Z,98251.88
2023-01-07T09:28:58.691Z,98246.47
2023-01-07T09:31:03.062Z,98244.47
2023-01-07T09:33:06.210Z,98250.53
2023-01-07T09:35:09.986Z,98251.03
2023-01-07T09:37:13.071Z,98249.56
2023-01-07T09:39:17.590Z,98251.97
2023-01-07T09:41:27.277Z,98255.13
2023-01-07T09:43:59.339Z,98262.75
2023-01-07T09:46:01.236Z,98262.47
2023-01-07T09:48:07.778Z,98258.69
2023-01-07T09:50:19.828Z,98262.66
2023-01-07T09:52:25.178Z,98258.91
2023-01-07T09:54:31.271Z,98255.22
2023-01-07T09:56:35.602Z,98254.19
2023-01-07T09:58:39.271Z,98255.00
2023-01-07T10:00:52.999Z,98255.63
2023-01-07T10:03:15.323Z,98245.47
2023-01-07T10:05:30.323Z,98245.88
2023-01-07T10:07:37.932Z,98242.94
2023-01-07T10:09:51.080Z,98229.88
2023-01-07T10:12:00.406Z,98232.03
2023-01-07T10:14:36.628Z,98228.59
2023-01-07T10:16:43.468Z,98222.75
2023-01-07T10:18:55.656Z,98211.69
2023-01-07T10:21:04.889Z,98217.72
2023-01-07T10:23:11.573Z,98220.13
2023-01-07T10:25:19.612Z,98215.66
2023-01-07T10:27:30.627Z,98213.53
2023-01-07T10:29:37.151Z,98209.75
2023-01-07T10:31:40.771Z,98204.31
2023-01-07T10:33:45.303Z,98200.84
2023-01-07T10:35:50.143Z,98190.75
2023-01-07T10:37:53.697Z,98185.94
2023-01-07T10:40:03.552Z,98185.72
2023-01-07T10:42:13.688Z,98187.78
2023-01-07T10:44:44.558Z,98180.53
2023-01-07T10:46:55.905Z,98184.16
2023-01-07T10:49:29.911Z,98173.59
2023-01-07T10:52:00.121Z,98163.59
2023-01-07T10:54:08.706Z,98163.81
2023-01-07T10:56:23.175Z,98166.41
2023-01-07T10:58:29.067Z,98157.66
2023-01-07T11:00:32.120Z,98155.38
2023-01-07T11:02:35.283Z,98158.72
2023-01-07T11:04:38.378Z,98155.97
2023-01-07T11:06:45.465Z,98152.06
2023-01-07T11:08:50.093Z,98147.88
2023-01-07T11:10:53.127Z,98148.69
2023-01-07T11:12:59.096Z,98144.78
2023-01-07T11:15:06.608Z,98143.59
2023-01-07T11:17:14.068Z,98146.78
2023-01-07T11:19:17.306Z,98136.91
2023-01-07T11:21:43.572Z,98139.78
2023-01-07T11:23:47.401Z,98129.09
2023-01-07T11:25:50.635Z,98114.91
2023-01-07T11:27:53.809Z,98119.91
2023-01-07T11:29:59.294Z,98114.81
2023-01-07T11:32:05.734Z,98113.41
2023-01-07T11:34:21.004Z,98105.72
2023-01-07T11:36:42.110Z,98110.72
2023-01-07T11:38:45.652Z,98102.78
2023-01-07T11:40:59.805Z,98100.56
2023-01-07T11:43:05.191Z,98087.59
2023-01-07T11:45:17.045Z,98084.75
2023-01-07T11:47:21.568Z,98081.53
2023-01-07T11:49:27.496Z,98073.94
2023-01-07T11:51:40.577Z,98075.94
2023-01-07T11:53:45.916Z,98074.66
2023-01-07T11:55:57.929Z,98061.09
2023-01-07T11:58:28.622Z,98064.91
2023-01-07T12:00:24.784Z,98048.97
2023-01-07T12:02:29.454Z,98048.53
2023-01-07T12:04:33.661Z,98046.63
2023-01-07T12:06:40.119Z,98046.63
2023-01-07T12:08:44.565Z,98037.28
2023-01-07T12:10:47.623Z,98032.91
2023-01-07T12:12:50.597Z,98031.84
2023-01-07T12:14:53.696Z,98027.81
2023-01-07T12:16:58.880Z,98021.13
2023-01-07T12:19:15.531Z,98024.31
2023-01-07T12:21:37.119Z,98016.59
2023-01-07T12:23:49.653Z,98012.22
2023-01-07T12:25:58.398Z,98010.41
2023-01-07T12:28:08.231Z,98005.53
2023-01-07T12:30:24.928Z,97992.34
2023-01-07T12:32:36.558Z,97990.44
2023-01-07T12:34:48.492Z,97982.56
2023-01-07T12:36:56.462Z,97974.84
2023-01-07T12:39:03.245Z,97965.84
2023-01-07T12:41:10.851Z,97965.94
2023-01-07T12:43:16.698Z,97969.28
2023-01-07T12:45:23.555Z,97962.00
2023-01-07T12:47:32.506Z,97957.63
2023-01-07T12:49:42.865Z,97949.28
2023-01-07T12:51:52.286Z,97943.47
2023-01-07T12:53:58.916Z,97949.28
2023-01-07T12:56:06.463Z,97938.72
2023-01-07T12:58:16.946Z,97935.66
2023-01-07T13:00:23.800Z,97937.53
2023-01-07T13:02:35.761Z,97925.56
2023-01-07T13:04:47.162Z,97927.44
2023-01-07T13:06:54.455Z,97913.88
2023-01-07T13:08:59.851Z,97909.97
2023-01-07T13:11:05.413Z,97907.69
2023-01-07T13:13:14.908Z,97911.53
2023-01-07T13:15:22.078Z,97911.28
2023-01-07T13:17:27.077Z,97901.53
2023-01-07T13:19:30.176Z,97909.38
2023-01-07T13:21:34.664Z,97905.44
2023-01-07T13:23:52.220Z,97899.63
2023-01-07T13:26:07.313Z,97900.69
2023-01-07T13:28:27.830Z,97904.63
2023-01-07T13:30:39.026Z,97904.63
2023-01-07T13:32:57.436Z,97890.59
2023-01-07T13:35:14.757Z,97886.56
2023-01-07T13:37:33.206Z,97893.94
2023-01-07T13:39:49.696Z,97879.19
2023-01-07T13:42:05.579Z,97877.66
2023-01-07T13:44:28.105Z,97869.31
2023-01-07T13:46:34.450Z,97883.25
2023-01-07T13:48:38.503Z,97873.50
2023-01-07T13:50:44.014Z,97879.66
2023-01-07T13:52:57.116Z,97873.72
2023-01-07T13:55:01.621Z,97877.16
2023-01-07T13:57:41.617Z,97871.34
2023-01-07T13:59:49.466Z,97876.09
2023-01-07T14:02:18.152Z,97878.03
2023-01-07T14:04:38.653Z,97870.88
2023-01-07T14:06:42.603Z,97866.59
2023-01-07T14:08:47.745Z,97860.91
2023-01-07T14:10:53.283Z,97862.56
2023-01-07T14:13:10.958Z,97851.28
2023-01-07T14:16:01.691Z,97856.13
2023-01-07T14:18:24.310Z,97858.88
2023-01-07T14:20:32.468Z,97856.63
2023-01-07T14:22:41.053Z,97866.47
2023-01-07T14:25:08.810Z,97866.59
2023-01-07T14:27:31.590Z,97866.59
2023-01-07T14:29:47.111Z,97865.66
2023-01-07T14:31:51.353Z,97866.38
2023-01-07T14:33:58.193Z,97858.41
2023-01-07T14:36:02.885Z,97866.47
2023-01-07T14:38:39.427Z,97869.34
2023-01-07T14:41:07.747Z,97866.00
2023-01-07T14:43:47.341Z,97863.75
2023-01-07T14:45:54.832Z,97863.13
2023-01-07T14:47:57.932Z,97861.50
2023-01-07T14:50:14.418Z,97858.25
2023-01-07T14:52:26.978Z,97856.75
2023-01-07T14:55:05.423Z,97858.72
2023-01-07T14:57:21.282Z,97859.94
2023-01-07T14:59:38.137Z,97861.59
2023-01-07T15:01:49.921Z,97858.03
2023-01-07T15:04:18.166Z,97853.78
2023-01-07T15:06:25.756Z,97859.22
2023-01-07T15:08:50.508Z,97860.88
2023-01-07T15:11:12.192Z,97865.38
2023-01-07T15:13:37.000Z,97866.78
2023-01-07T15:15:59.019Z,97860.75
2023-01-07T15:18:02.393Z,97857.44
2023-01-07T15:20:06.293Z,97858.25
2023-01-07T15:22:18.219Z,97859.41
2023-01-07T15:24:26.845Z,97852.56
2023-01-07T15:26:37.745Z,97850.97
2023-01-07T15:28:48.593Z,97855.38
2023-01-07T15:30:58.296Z,97856.41
2023-01-07T15:33:07.506Z,97852.97
2023-01-07T15:35:16.415Z,97848.00
2023-01-07T15:37:20.129Z,97836.09
2023-01-07T15:39:25.121Z,97852.09
2023-01-07T15:41:31.784Z,97850.69
2023-01-07T15:43:34.800Z,97845.81
2023-01-07T15:45:39.350Z,97835.72
2023-01-07T15:47:43.490Z,97841.88
2023-01-07T15:49:46.617Z,97836.78
2023-01-07T15:51:51.270Z,97830.00
2023-01-07T15:53:56.082Z,97832.94
2023-01-07T15:56:01.149Z,97827.00
2023-01-07T15:58:06.100Z,97826.53
2023-01-07T16:00:10.361Z,97825.69
2023-01-07T16:02:22.240Z,97822.59
2023-01-07T16:04:28.068Z,97815.56
2023-01-07T16:06:35.030Z,97812.25
2023-01-07T16:08:38.239Z,97807.69
2023-01-07T16:10:41.347Z,97810.03
2023-01-07T16:12:50.449Z,97815.94
2023-01-07T16:14:53.562Z,97809.47
2023-01-07T16:17:11.641Z,97802.44
2023-01-07T16:19:20.468Z,97802.75
2023-01-07T16:21:24.174Z,97803.94
2023-01-07T16:23:28.680Z,97807.50
2023-01-07T16:25:34.874Z,97806.78
2023-01-07T16:27:38.727Z,97812.22
2023-01-07T16:29:51.024Z,97809.94
2023-01-07T16:31:54.657Z,97818.78
2023-01-07T16:33:58.771Z,97810.47
2023-01-07T16:36:07.550Z,97815.28
2023-01-07T16:38:11.341Z,97811.94
2023-01-07T16:40:21.908Z,97817.16
2023-01-07T16:42:27.120Z,97816.34
2023-01-07T16:45:00.644Z,97817.59
2023-01-07T16:47:08.180Z,97817.38
2023-01-07T16:49:29.606Z,97812.59
2023-01-07T16:51:38.605Z,97824.03
2023-01-07T16:53:41.777Z,97830.31
2023-01-07T16:55:49.239Z,97826.97
2023-01-07T16:57:52.321Z,97824.47
2023-01-07T16:59:57.213Z,97825.53
2023-01-07T17:02:03.205Z,97827.63
2023-01-07T17:04:10.050Z,97815.75
2023-01-07T17:06:13.190Z,97816.19
2023-01-07T17:08:19.948Z,97818.38
2023-01-07T17:10:26.476Z,97812.00
2023-01-07T17:12:30.965Z,97814.81
2023-01-07T17:14:50.076Z,97816.91
2023-01-07T17:17:00.055Z,97811.31
2023-01-07T17:19:25.465Z,97809.22
2023-01-07T17:21:40.271Z,97807.25
2023-01-07T17:23:45.611Z,97799.75
2023-01-07T17:25:48.693Z,97806.06
2023-01-07T17:27:53.909Z,97806.19
2023-01-07T17:29:57.103Z,97801.38
2023-01-07T17:32:00.197Z,97793.88
2023-01-07T17:34:03.374Z,97791.50
2023-01-07T17:36:07.248Z,97791.88
2023-01-07T17:38:13.290Z,97785.34
2023-01-07T17:40:18.771Z,97786.47
2023-01-07T17:42:41.338Z,97780.75
2023-01-07T17:44:45.757Z,97772.41
2023-01-07T17:46:49.043Z,97771.25
2023-01-07T17:48:52.450Z,97763.88
2023-01-07T17:50:57.182Z,97776.97
2023-01-07T17:53:00.629Z,97781.44
2023-01-07T17:55:04.163Z,97779.25
2023-01-07T17:57:09.799Z,97777.28
2023-01-07T17:59:15.799Z,97777.47
2023-01-07T18:01:20.513Z,97778.44
2023-01-07T18:03:23.892Z,97780.84
2023-01-07T18:05:27.544Z,97788.31
2023-01-07T18:07:30.689Z,97782.09
2023-01-07T18:09:33.743Z,97781.16
2023-01-07T18:11:56.244Z,97784.88
2023-01-07T18:14:01.050Z,97778.53
2023-01-07T18:16:04.678Z,97779.94
2023-01-07T18:18:07.875Z,97779.22
2023-01-07T18:20:11.922Z,97773.47
2023-01-07T18:22:15.091Z,97770.34
2023-01-07T18:24:20.074Z,97771.44
2023-01-07T18:26:23.278Z,97776.66
2023-01-07T18:28:26.502Z,97777.03
2023-01-07T18:30:31.515Z,97771.31
2023-01-07T18:32:34.596Z,97773.91
2023-01-07T18:34:38.122Z,97765.44
2023-01-07T18:36:41.614Z,97775.84
2023-01-07T18:38:44.853Z,97779.38
2023-01-07T18:40:48.032Z,97789.09
2023-01-07T18:42:51.120Z,97782.53
2023-01-07T18:44:54.176Z,97778.47
2023-01-07T18:46:58.867Z,97768.38
2023-01-07T18:49:02.078Z,97765.31
2023-01-07T18:51:10.532Z,97768.13
2023-01-07T18:53:14.160Z,97762.19
2023-01-07T18:55:19.367Z,97761.44
2023-01-07T18:57:22.577Z,97762.38
2023-01-07T18:59:25.770Z,97754.03
2023-01-07T19:01:28.906Z,97752.56
2023-01-07T19:03:33.839Z,97745.69
2023-01-07T19:05:40.161Z,97745.16
2023-01-07T19:07:43.536Z,97746.25
2023-01-07T19:09:47.093Z,97742.75
2023-01-07T19:11:50.363Z,97743.13
2023-01-07T19:13:53.490Z,97740.00
2023-01-07T19:15:56.523Z,97746.19
2023-01-07T19:17:59.532Z,97748.22
2023-01-07T19:20:03.997Z,97742.56
2023-01-07T19:22:07.092Z,97744.50
2023-01-07T19:24:10.398Z,97727.78
2023-01-07T19:26:13.513Z,97743.31
2023-01-07T19:28:16.571Z,97736.38
2023-01-07T19:30:19.625Z,97744.25
2023-01-07T19:32:22.887Z,97745.16
2023-01-07T19:34:26.197Z,97741.19
2023-01-07T19:36:30.652Z,97738.69
2023-01-07T19:38:33.780Z,97733.69
2023-01-07T19:40:36.859Z,97734.69
2023-01-07T19:42:39.905Z,97726.72
2023-01-07T19:44:43.163Z,97727.00
2023-01-07T19:46:46.170Z,97726.22
2023-01-07T19:48:49.734Z,97738.63
2023-01-07T19:50:57.239Z,97731.78
2023-01-07T19:53:01.745Z,97729.78
2023-01-07T19:55:05.679Z,97722.72
2023-01-07T19:57:09.048Z,97734.00
2023-01-07T19:59:12.352Z,97734.94
2023-01-07T20:01:17.986Z,97738.47
2023-01-07T20:03:21.183Z,97744.53
2023-01-07T20:05:25.941Z,97742.03
2023-01-07T20:07:33.985Z,97744.16
2023-01-07T20:09:40.687Z,97741.75
2023-01-07T20:11:43.766Z,97740.84
2023-01-07T20:13:47.990Z,97737.34
2023-01-07T20:15:51.075Z,97743.53
2023-01-07T20:17:54.197Z,97740.03
2023-01-07T20:19:57.258Z,97730.66
2023-01-07T20:22:00.355Z,97725.47
2023-01-07T20:24:04.408Z,97721.22
2023-01-07T20:26:11.959Z,97721.31
2023-01-07T20:28:15.040Z,97717.16
2023-01-07T20:30:18.178Z,97717.34
2023-01-07T20:32:21.217Z,97704.47
2023-01-07T20:34:24.284Z,97714.91
2023-01-07T20:36:29.516Z,97706.31
2023-01-07T20:38:32.647Z,97705.38
2023-01-07T20:40:35.844Z,97712.50
2023-01-07T20:42:40.431Z,97714.34
2023-01-07T20:44:43.524Z,97715.44
2023-01-07T20:46:46.594Z,97697.50
2023-01-07T20:48:49.906Z,97693.41
2023-01-07T20:50:52.979Z,97697.38
2023-01-07T20:52:56.116Z,97693.94
2023-01-07T20:54:59.139Z,97690.44
2023-01-07T20:57:02.661Z,97682.69
2023-01-07T20:59:07.613Z,97686.75
2023-01-07T21:01:14.229Z,97681.94
2023-01-07T21:03:17.612Z,97688.03
2023-01-07T21:05:22.955Z,97695.22
2023-01-07T21:07:26.134Z,97689.53
2023-01-07T21:09:29.293Z,97685.75
2023-01-07T21:11:32.471Z,97692.56
2023-01-07T21:13:35.645Z,97690.84
2023-01-07T21:15:40.286Z,97687.22
2023-01-07T21:17:43.871Z,97687.56
2023-01-07T21:19:47.042Z,97691.28
2023-01-07T21:21:50.687Z,97691.63
2023-01-07T21:23:54.359Z,97691.94
2023-01-07T21:25:58.730Z,97693.16
2023-01-07T21:28:02.112Z,97684.09
2023-01-07T21:30:06.335Z,97690.91
2023-01-07T21:32:10.797Z,97685.59
2023-01-07T21:34:15.417Z,97682.81
2023-01-07T21:36:19.573Z,97681.91
2023-01-07T21:38:22.828Z,97677.50
2023-01-07T21:40:25.988Z,97674.16
2023-01-07T21:42:29.090Z,97671.56
2023-01-07T21:44:32.157Z,97671.56
2023-01-07T21:46:35.318Z,97677.00
2023-01-07T21:48:40.892Z,97667.38
2023-01-07T21:50:43.920Z,97671.81
2023-01-07T21:52:46.995Z,97668.41
2023-01-07T21:54:51.858Z,97662.31
2023-01-07T21:56:54.987Z,97670.16
2023-01-07T21:58:58.102Z,97663.25
2023-01-07T22:01:01.311Z,97672.06
2023-01-07T22:03:04.970Z,97672.06
2023-01-07T22:05:11.883Z,97668.75
2023-01-07T22:07:16.047Z,97665.41
2023-01-07T22:09:20.173Z,97665.47
2023-01-07T22:11:25.004Z,97671.59
2023-01-07T22:13:28.685Z,97676.75
2023-01-07T22:15:32.888Z,97673.41
2023-01-07T22:17:36.520Z,97678.75
2023-01-07T22:19:39.796Z,97672.84
2023-01-07T22:21:44.495Z,97667.66
2023-01-07T22:23:48.477Z,97661.75
2023-01-07T22:25:52.262Z,97652.50
2023-01-07T22:27:57.811Z,97656.00
2023-01-07T22:30:01.765Z,97657.00
2023-01-07T22:32:05.213Z,97657.09
2023-01-07T22:34:09.755Z,97652.81
2023-01-07T22:36:13.636Z,97657.91
2023-01-07T22:38:20.002Z,97654.94
2023-01-07T22:40:23.246Z,97647.41
2023-01-07T22:42:32.057Z,97644.84
2023-01-07T22:44:37.927Z,97651.00
2023-01-07T22:46:42.985Z,97652.94
2023-01-07T22:48:46.091Z,97652.09
2023-01-07T22:50:49.619Z,97654.00
2023-01-07T22:52:53.010Z,97648.09
2023-01-07T22:54:57.872Z,97649.75
2023-01-07T22:57:01.422Z,97645.50
2023-01-07T22:59:05.075Z,97635.16
2023-01-07T23:01:12.948Z,97646.66
2023-01-07T23:03:16.628Z,97649.25
2023-01-07T23:05:20.040Z,97639.75
2023-01-07T23:07:23.532Z,97636.41
2023-01-07T23:09:26.827Z,97639.69
2023-01-07T23:11:50.836Z,97630.25
2023-01-07T23:13:54.207Z,97632.75
2023-01-07T23:15:57.611Z,97632.84
2023-01-07T23:18:00.815Z,97625.25
2023-01-07T23:20:03.880Z,97623.59
2023-01-07T23:22:06.983Z,97626.91
2023-01-07T23:24:10.595Z,97622.66
2023-01-07T23:26:14.794Z,97620.16
2023-01-07T23:28:20.207Z,97619.34
2023-01-07T23:30:23.589Z,97609.91
2023-01-07T23:32:26.839Z,97600.50
2023-01-07T23:34:30.047Z,97608.75
2023-01-07T23:36:33.158Z,97603.59
2023-01-07T23:38:36.718Z,97596.56
2023-01-07T23:40:40.441Z,97599.97
2023-01-07T23:42:46.273Z,97601.75
2023-01-07T23:44:50.647Z,97605.41
2023-01-07T23:46:53.699Z,97596.09
2023-01-07T23:48:56.727Z,97589.16
2023-01-07T23:51:06.003Z,97589.25
2023-01-07T23:53:09.022Z,97603.84
2023-01-07T23:55:12.009Z,97591.91
2023-01-07T23:57:15.273Z,97594.56
2023-01-07T23:59:18.794Z,97582.59
